createdAt,value
2022-12-18T00:01:26.882Z,101149.66
2022-12-18T00:03:57.230Z,101146.25
2022-12-18T00:06:27.136Z,101137.72
2022-12-18T00:08:55.684Z,101137.50
2022-12-18T00:11:25.524Z,101132.09
2022-12-18T00:13:57.231Z,101137.91
2022-12-18T00:16:27.729Z,101131.44
2022-12-18T00:18:58.096Z,101136.22
2022-12-18T00:21:26.412Z,101133.19
2022-12-18T00:23:55.083Z,101133.78
2022-12-18T00:26:28.548Z,101126.41
2022-12-18T00:29:01.262Z,101117.44
2022-12-18T00:31:30.219Z,101120.53
2022-12-18T00:33:59.133Z,101121.16
2022-12-18T00:36:29.179Z,101118.31
2022-12-18T00:38:59.305Z,101108.72
2022-12-18T00:41:45.538Z,101103.44
2022-12-18T00:44:17.728Z,101094.66
2022-12-18T00:46:46.670Z,101094.44
2022-12-18T00:49:15.028Z,101086.53
2022-12-18T00:51:43.514Z,101085.44
2022-12-18T00:54:13.116Z,101077.44
2022-12-18T00:56:49.401Z,101056.38
2022-12-18T00:59:20.108Z,101053.53
2022-12-18T01:01:49.258Z,101047.28
2022-12-18T01:04:17.689Z,101041.00
2022-12-18T01:06:45.931Z,101035.34
2022-12-18T01:09:14.132Z,101023.25
2022-12-18T01:11:42.427Z,101012.00
2022-12-18T01:14:11.031Z,101009.19
2022-12-18T01:16:40.717Z,101009.06
2022-12-18T01:19:09.014Z,100996.88
2022-12-18T01:21:38.157Z,100992.38
2022-12-18T01:24:07.328Z,100983.63
2022-12-18T01:26:35.496Z,100976.63
2022-12-18T01:29:03.868Z,100978.41
2022-12-18T01:31:34.193Z,100968.81
2022-12-18T01:34:05.561Z,100967.03
2022-12-18T01:36:34.417Z,100952.34
2022-12-18T01:39:04.716Z,100947.16
2022-12-18T01:41:48.270Z,100939.47
2022-12-18T01:44:49.238Z,100931.88
2022-12-18T01:47:20.529Z,100919.78
2022-12-18T01:49:49.868Z,100904.28
2022-12-18T01:52:19.486Z,100900.13
2022-12-18T01:54:48.633Z,100882.97
2022-12-18T01:57:17.293Z,100882.84
2022-12-18T01:59:51.762Z,100889.72
2022-12-18T02:02:20.819Z,100871.25
2022-12-18T02:04:50.536Z,100856.31
2022-12-18T02:07:27.260Z,100837.13
2022-12-18T02:10:01.791Z,100836.09
2022-12-18T02:12:36.294Z,100831.69
2022-12-18T02:15:12.203Z,100829.09
2022-12-18T02:17:46.077Z,100836.91
2022-12-18T02:20:20.265Z,100837.72
2022-12-18T02:23:03.235Z,100833.34
2022-12-18T02:25:48.246Z,100841.63
2022-12-18T02:28:22.409Z,100846.63
2022-12-18T02:30:53.626Z,100842.00
2022-12-18T02:33:23.066Z,100833.09
2022-12-18T02:35:54.118Z,100823.13
2022-12-18T02:38:22.574Z,100821.25
2022-12-18T02:40:52.252Z,100808.69
2022-12-18T02:43:21.938Z,100804.16
2022-12-18T02:45:52.336Z,100793.97
2022-12-18T02:48:24.832Z,100795.84
2022-12-18T02:51:01.675Z,100782.31
2022-12-18T02:53:36.219Z,100773.72
2022-12-18T02:56:09.558Z,100759.63
2022-12-18T02:58:48.153Z,100749.78
2022-12-18T03:01:22.210Z,100737.44
2022-12-18T03:03:58.630Z,100720.81
2022-12-18T03:06:30.191Z,100712.81
2022-12-18T03:09:04.576Z,100703.41
2022-12-18T03:11:53.108Z,100696.00
2022-12-18T03:14:23.705Z,100675.81
2022-12-18T03:16:56.507Z,100663.50
2022-12-18T03:19:28.453Z,100662.28
2022-12-18T03:21:59.587Z,100656.09
2022-12-18T03:24:30.133Z,100647.88
2022-12-18T03:27:03.337Z,100645.00
2022-12-18T03:29:38.159Z,100641.16
2022-12-18T03:32:10.209Z,100649.56
2022-12-18T03:34:42.162Z,100641.34
2022-12-18T03:37:10.806Z,100646.78
2022-12-18T03:39:39.343Z,100637.97
2022-12-18T03:42:11.988Z,100654.22
2022-12-18T03:44:47.472Z,100671.53
2022-12-18T03:47:19.325Z,100673.31
2022-12-18T03:49:54.256Z,100679.91
2022-12-18T03:52:28.961Z,100673.19
2022-12-18T03:54:59.616Z,100709.59
2022-12-18T03:57:31.549Z,100717.66
2022-12-18T04:00:06.749Z,100704.03
2022-12-18T04:02:37.400Z,100692.75
2022-12-18T04:05:09.655Z,100698.13
2022-12-18T04:07:38.536Z,100705.13
2022-12-18T04:10:10.369Z,100701.66
2022-12-18T04:12:40.025Z,100702.09
2022-12-18T04:15:10.887Z,100705.41
2022-12-18T04:17:39.430Z,100704.59
2022-12-18T04:20:08.535Z,100708.16
2022-12-18T04:22:36.616Z,100711.72
2022-12-18T04:25:05.174Z,100703.88
2022-12-18T04:27:33.390Z,100687.28
2022-12-18T04:30:01.994Z,100678.59
2022-12-18T04:32:31.699Z,100664.63
2022-12-18T04:34:59.830Z,100649.88
2022-12-18T04:37:27.980Z,100642.75
2022-12-18T04:39:56.632Z,100631.34
2022-12-18T04:42:24.900Z,100620.50
2022-12-18T04:44:53.051Z,100615.84
2022-12-18T04:47:21.162Z,100603.47
2022-12-18T04:49:50.665Z,100598.13
2022-12-18T04:52:18.918Z,100614.34
2022-12-18T04:54:47.051Z,100597.44
2022-12-18T04:57:15.110Z,100592.63
2022-12-18T04:59:43.421Z,100578.50
2022-12-18T05:02:11.688Z,100574.75
2022-12-18T05:04:39.921Z,100568.59
2022-12-18T05:07:09.512Z,100553.75
2022-12-18T05:09:37.630Z,100539.88
2022-12-18T05:12:06.096Z,100528.72
2022-12-18T05:14:34.219Z,100529.53
2022-12-18T05:17:02.381Z,100507.28
2022-12-18T05:19:30.441Z,100510.84
2022-12-18T05:21:58.616Z,100483.06
2022-12-18T05:24:28.145Z,100481.28
2022-12-18T05:26:56.232Z,100473.34
2022-12-18T05:29:24.556Z,100468.94
2022-12-18T05:31:52.753Z,100468.09
2022-12-18T05:34:20.852Z,100483.06
2022-12-18T05:36:48.971Z,100470.03
2022-12-18T05:39:17.151Z,100463.97
2022-12-18T05:41:46.628Z,100470.72
2022-12-18T05:44:15.015Z,100459.41
2022-12-18T05:46:43.163Z,100463.00
2022-12-18T05:49:11.345Z,100464.13
2022-12-18T05:51:39.511Z,100456.69
2022-12-18T05:54:08.636Z,100458.47
2022-12-18T05:56:36.776Z,100461.09
2022-12-18T05:59:06.324Z,100442.81
2022-12-18T06:01:34.559Z,100448.69
2022-12-18T06:04:02.890Z,100456.38
2022-12-18T06:06:31.571Z,100458.06
2022-12-18T06:09:00.297Z,100445.94
2022-12-18T06:11:29.131Z,100444.84
2022-12-18T06:13:59.585Z,100444.84
2022-12-18T06:16:30.562Z,100420.38
2022-12-18T06:18:59.590Z,100420.38
2022-12-18T06:21:28.748Z,100425.44
2022-12-18T06:23:56.859Z,100428.91
2022-12-18T06:26:28.328Z,100420.22
2022-12-18T06:28:56.876Z,100408.28
2022-12-18T06:31:25.487Z,100412.13
2022-12-18T06:33:54.993Z,100422.72
2022-12-18T06:36:23.278Z,100398.41
2022-12-18T06:38:51.690Z,100398.69
2022-12-18T06:41:22.810Z,100391.81
2022-12-18T06:43:51.676Z,100381.91
2022-12-18T06:46:22.011Z,100379.44
2022-12-18T06:48:51.463Z,100370.94
2022-12-18T06:51:22.863Z,100382.47
2022-12-18T06:53:51.433Z,100383.28
2022-12-18T06:56:19.723Z,100390.47
2022-12-18T06:58:47.935Z,100382.91
2022-12-18T07:01:16.404Z,100377.28
2022-12-18T07:03:45.599Z,100384.13
2022-12-18T07:06:18.275Z,100380.31
2022-12-18T07:08:48.286Z,100376.06
2022-12-18T07:11:17.807Z,100377.84
2022-12-18T07:13:46.792Z,100366.69
2022-12-18T07:16:24.284Z,100397.09
2022-12-18T07:18:53.182Z,100390.50
2022-12-18T07:21:22.036Z,100383.19
2022-12-18T07:23:51.780Z,100375.66
2022-12-18T07:26:21.946Z,100384.97
2022-12-18T07:28:50.940Z,100373.72
2022-12-18T07:31:21.634Z,100365.59
2022-12-18T07:33:50.930Z,100362.19
2022-12-18T07:36:19.621Z,100370.16
2022-12-18T07:38:49.540Z,100375.22
2022-12-18T07:41:19.928Z,100376.69
2022-12-18T07:43:48.450Z,100374.78
2022-12-18T07:46:17.784Z,100372.84
2022-12-18T07:48:49.879Z,100363.63
2022-12-18T07:51:19.848Z,100400.88
2022-12-18T07:53:49.454Z,100374.34
2022-12-18T07:56:27.789Z,100371.59
2022-12-18T07:58:57.535Z,100381.38
2022-12-18T08:01:26.253Z,100375.00
2022-12-18T08:03:54.597Z,100358.41
2022-12-18T08:06:23.926Z,100365.25
2022-12-18T08:08:53.767Z,100331.59
2022-12-18T08:11:24.132Z,100336.81
2022-12-18T08:13:52.792Z,100335.72
2022-12-18T08:16:21.726Z,100328.69
2022-12-18T08:18:50.807Z,100319.88
2022-12-18T08:21:24.178Z,100287.19
2022-12-18T08:23:53.253Z,100284.56
2022-12-18T08:26:23.807Z,100272.75
2022-12-18T08:28:52.126Z,100266.72
2022-12-18T08:31:21.075Z,100260.66
2022-12-18T08:33:51.143Z,100250.22
2022-12-18T08:36:19.680Z,100238.13
2022-12-18T08:38:47.994Z,100222.47
2022-12-18T08:41:17.561Z,100195.38
2022-12-18T08:44:05.158Z,100178.72
2022-12-18T08:46:38.300Z,100159.78
2022-12-18T08:49:07.366Z,100157.19
2022-12-18T08:51:36.101Z,100141.50
2022-12-18T08:54:05.130Z,100124.88
2022-12-18T08:56:35.210Z,100106.31
2022-12-18T08:59:05.448Z,100088.00
2022-12-18T09:01:33.800Z,100088.88
2022-12-18T09:04:03.479Z,100077.69
2022-12-18T09:06:33.161Z,100063.66
2022-12-18T09:09:01.243Z,100049.13
2022-12-18T09:11:31.190Z,100022.69
2022-12-18T09:14:00.335Z,100010.47
2022-12-18T09:16:32.812Z,100012.91
2022-12-18T09:19:01.805Z,100009.31
2022-12-18T09:21:33.095Z,99998.88
2022-12-18T09:24:07.327Z,99991.84
2022-12-18T09:26:37.750Z,99984.19
2022-12-18T09:29:08.256Z,99966.06
2022-12-18T09:31:39.095Z,99946.78
2022-12-18T09:34:07.188Z,99940.59
2022-12-18T09:36:35.599Z,99905.81
2022-12-18T09:39:07.844Z,99868.25
2022-12-18T09:41:49.080Z,99847.19
2022-12-18T09:44:25.908Z,99843.63
2022-12-18T09:47:05.645Z,99817.50
2022-12-18T09:49:39.536Z,99815.53
2022-12-18T09:52:13.925Z,99812.91
2022-12-18T09:54:45.286Z,99799.56
2022-12-18T09:57:17.307Z,99788.13
2022-12-18T09:59:52.117Z,99779.47
2022-12-18T10:02:24.006Z,99769.00
2022-12-18T10:05:08.642Z,99747.13
2022-12-18T10:07:46.279Z,99735.06
2022-12-18T10:10:25.022Z,99706.81
2022-12-18T10:13:04.885Z,99699.78
2022-12-18T10:15:38.989Z,99711.69
2022-12-18T10:18:31.258Z,99668.59
2022-12-18T10:21:06.172Z,99670.09
2022-12-18T10:23:46.603Z,99661.25
2022-12-18T10:26:16.602Z,99650.97
2022-12-18T10:28:46.378Z,99670.56
2022-12-18T10:31:19.148Z,99650.16
2022-12-18T10:33:49.004Z,99664.03
2022-12-18T10:36:17.366Z,99638.56
2022-12-18T10:38:45.871Z,99647.53
2022-12-18T10:41:28.413Z,99627.94
2022-12-18T10:44:22.784Z,99619.94
2022-12-18T10:46:52.644Z,99619.44
2022-12-18T10:49:25.809Z,99613.22
2022-12-18T10:52:06.508Z,99601.63
2022-12-18T10:54:37.277Z,99600.00
2022-12-18T10:57:19.981Z,99600.66
2022-12-18T10:59:56.578Z,99592.81
2022-12-18T11:02:30.712Z,99568.31
2022-12-18T11:05:00.350Z,99575.03
2022-12-18T11:07:48.194Z,99548.06
2022-12-18T11:10:20.263Z,99559.97
2022-12-18T11:12:49.362Z,99526.97
2022-12-18T11:15:22.029Z,99516.34
2022-12-18T11:17:52.261Z,99515.03
2022-12-18T11:20:33.485Z,99497.38
2022-12-18T11:23:04.278Z,99479.72
2022-12-18T11:25:35.712Z,99455.19
2022-12-18T11:28:05.517Z,99439.97
2022-12-18T11:30:36.140Z,99420.16
2022-12-18T11:33:08.549Z,99410.38
2022-12-18T11:35:54.225Z,99403.16
2022-12-18T11:38:26.458Z,99387.13
2022-12-18T11:41:01.025Z,99369.44
2022-12-18T11:43:33.871Z,99364.69
2022-12-18T11:46:06.892Z,99344.56
2022-12-18T11:48:41.469Z,99317.06
2022-12-18T11:51:23.827Z,99301.38
2022-12-18T11:53:55.236Z,99288.63
2022-12-18T11:56:34.919Z,99247.53
2022-12-18T11:59:14.452Z,99257.38
2022-12-18T12:01:51.027Z,99232.19
2022-12-18T12:04:45.112Z,99214.06
2022-12-18T12:07:28.272Z,99216.44
2022-12-18T12:10:07.265Z,99198.38
2022-12-18T12:12:51.146Z,99189.84
2022-12-18T12:15:34.016Z,99186.94
2022-12-18T12:18:11.468Z,99179.19
2022-12-18T12:20:52.557Z,99169.25
2022-12-18T12:23:34.830Z,99170.06
2022-12-18T12:26:08.318Z,99164.66
2022-12-18T12:29:03.991Z,99138.66
2022-12-18T12:31:50.325Z,99146.97
2022-12-18T12:34:23.560Z,99135.50
2022-12-18T12:37:06.540Z,99118.63
2022-12-18T12:39:39.528Z,99105.34
2022-12-18T12:42:32.551Z,99094.31
2022-12-18T12:45:03.921Z,99077.63
2022-12-18T12:47:36.201Z,99061.34
2022-12-18T12:50:09.151Z,99051.13
2022-12-18T12:52:42.171Z,99045.19
2022-12-18T12:55:19.518Z,99020.22
2022-12-18T12:58:00.136Z,99014.63
2022-12-18T13:00:33.733Z,99009.63
2022-12-18T13:03:14.404Z,99014.66
2022-12-18T13:05:46.712Z,99003.81
2022-12-18T13:08:24.667Z,99006.44
2022-12-18T13:11:16.895Z,99001.84
2022-12-18T13:13:52.743Z,98983.50
2022-12-18T13:16:22.302Z,98984.25
2022-12-18T13:18:52.750Z,98974.59
2022-12-18T13:21:25.705Z,98966.38
2022-12-18T13:23:53.869Z,98952.56
2022-12-18T13:26:34.413Z,98955.00
2022-12-18T13:29:05.495Z,98943.91
2022-12-18T13:32:10.274Z,98945.97
2022-12-18T13:34:38.867Z,98937.06
2022-12-18T13:37:54.064Z,98945.38
2022-12-18T13:40:57.850Z,98930.00
2022-12-18T13:43:35.107Z,98913.03
2022-12-18T13:46:25.773Z,98910.22
2022-12-18T13:48:58.351Z,98902.78
2022-12-18T13:51:27.411Z,98899.22
2022-12-18T13:53:59.830Z,98909.47
2022-12-18T13:56:30.070Z,98899.38
2022-12-18T13:59:18.342Z,98900.22
2022-12-18T14:01:54.854Z,98902.00
2022-12-18T14:04:27.121Z,98884.09
2022-12-18T14:06:59.950Z,98881.91
2022-12-18T14:09:30.960Z,98875.41
2022-12-18T14:12:19.335Z,98882.53
2022-12-18T14:14:53.517Z,98886.78
2022-12-18T14:17:24.972Z,98871.84
2022-12-18T14:19:53.884Z,98871.47
2022-12-18T14:22:30.470Z,98870.25
2022-12-18T14:25:19.012Z,98873.88
2022-12-18T14:27:50.086Z,98865.63
2022-12-18T14:30:31.709Z,98872.50
2022-12-18T14:33:03.774Z,98861.00
2022-12-18T14:35:32.539Z,98869.28
2022-12-18T14:38:20.133Z,98866.03
2022-12-18T14:40:48.327Z,98852.34
2022-12-18T14:43:16.472Z,98847.66
2022-12-18T14:45:47.717Z,98843.88
2022-12-18T14:48:23.219Z,98834.97
2022-12-18T14:51:02.388Z,98838.63
2022-12-18T14:53:36.108Z,98830.75
2022-12-18T14:56:05.078Z,98827.31
2022-12-18T14:58:33.409Z,98818.44
2022-12-18T15:01:03.030Z,98815.63
2022-12-18T15:03:31.322Z,98811.59
2022-12-18T15:06:18.266Z,98815.66
2022-12-18T15:08:46.396Z,98806.75
2022-12-18T15:11:34.279Z,98783.78
2022-12-18T15:14:02.871Z,98794.50
2022-12-18T15:16:32.557Z,98792.66
2022-12-18T15:19:00.750Z,98786.78
2022-12-18T15:21:31.673Z,98778.13
2022-12-18T15:23:59.940Z,98782.19
2022-12-18T15:26:28.263Z,98780.94
2022-12-18T15:28:58.494Z,98778.94
2022-12-18T15:31:35.965Z,98771.88
2022-12-18T15:34:14.810Z,98792.84
2022-12-18T15:36:42.999Z,98775.69
2022-12-18T15:39:14.184Z,98750.28
2022-12-18T15:42:02.541Z,98744.63
2022-12-18T15:44:29.745Z,98753.94
2022-12-18T15:46:59.205Z,98742.59
2022-12-18T15:49:27.601Z,98744.25
2022-12-18T15:51:58.793Z,98742.22
2022-12-18T15:54:40.858Z,98733.53
2022-12-18T15:57:26.561Z,98729.31
2022-12-18T15:59:57.583Z,98716.38
2022-12-18T16:02:27.372Z,98708.31
2022-12-18T16:04:57.003Z,98698.41
2022-12-18T16:07:28.103Z,98686.91
2022-12-18T16:09:59.429Z,98676.81
2022-12-18T16:12:30.779Z,98672.78
2022-12-18T16:14:58.857Z,98663.50
2022-12-18T16:17:28.331Z,98658.84
2022-12-18T16:19:56.559Z,98649.78
2022-12-18T16:22:26.387Z,98659.66
2022-12-18T16:24:55.706Z,98668.34
2022-12-18T16:27:24.979Z,98658.84
2022-12-18T16:29:53.136Z,98667.94
2022-12-18T16:32:22.477Z,98670.78
2022-12-18T16:34:53.141Z,98677.44
2022-12-18T16:37:21.193Z,98678.06
2022-12-18T16:39:49.317Z,98677.66
2022-12-18T16:42:20.475Z,98682.28
2022-12-18T16:44:49.602Z,98679.25
2022-12-18T16:47:18.202Z,98675.84
2022-12-18T16:49:46.718Z,98682.28
2022-12-18T16:52:16.476Z,98688.75
2022-12-18T16:54:46.249Z,98686.53
2022-12-18T16:57:15.924Z,98694.41
2022-12-18T16:59:44.511Z,98688.53
2022-12-18T17:02:15.901Z,98686.53
2022-12-18T17:04:46.614Z,98688.94
2022-12-18T17:07:16.970Z,98679.63
2022-12-18T17:09:45.041Z,98677.00
2022-12-18T17:12:13.378Z,98675.19
2022-12-18T17:14:41.718Z,98673.59
2022-12-18T17:17:25.144Z,98678.41
2022-12-18T17:19:53.663Z,98678.41
2022-12-18T17:22:23.594Z,98688.72
2022-12-18T17:24:51.964Z,98698.78
2022-12-18T17:27:20.133Z,98692.56
2022-12-18T17:29:49.160Z,98686.88
2022-12-18T17:32:17.540Z,98684.84
2022-12-18T17:34:46.069Z,98675.13
2022-12-18T17:37:14.506Z,98676.38
2022-12-18T17:39:44.212Z,98672.91
2022-12-18T17:42:15.358Z,98671.28
2022-12-18T17:44:43.836Z,98675.34
2022-12-18T17:47:13.133Z,98681.00
2022-12-18T17:49:41.418Z,98670.28
2022-12-18T17:52:09.952Z,98669.06
2022-12-18T17:54:42.258Z,98662.00
2022-12-18T17:57:12.314Z,98661.19
2022-12-18T17:59:40.420Z,98664.63
2022-12-18T18:02:08.723Z,98664.81
2022-12-18T18:04:37.037Z,98667.44
2022-12-18T18:07:05.110Z,98674.31
2022-12-18T18:09:33.263Z,98666.25
2022-12-18T18:12:19.129Z,98675.75
2022-12-18T18:14:48.783Z,98665.84
2022-12-18T18:17:16.906Z,98670.69
2022-12-18T18:19:49.025Z,98670.69
2022-12-18T18:22:18.043Z,98668.88
2022-12-18T18:24:47.141Z,98670.25
2022-12-18T18:27:15.738Z,98668.81
2022-12-18T18:29:43.866Z,98667.81
2022-12-18T18:32:13.439Z,98663.38
2022-12-18T18:34:41.557Z,98664.53
2022-12-18T18:37:11.356Z,98656.06
2022-12-18T18:39:39.877Z,98663.31
2022-12-18T18:42:08.477Z,98656.44
2022-12-18T18:44:36.686Z,98644.13
2022-12-18T18:47:09.445Z,98637.25
2022-12-18T18:49:39.279Z,98639.47
2022-12-18T18:52:08.438Z,98642.69
2022-12-18T18:54:36.641Z,98643.28
2022-12-18T18:57:20.275Z,98630.53
2022-12-18T18:59:49.064Z,98635.38
2022-12-18T19:02:18.417Z,98627.88
2022-12-18T19:04:48.092Z,98634.16
2022-12-18T19:07:29.702Z,98632.91
2022-12-18T19:10:04.432Z,98619.94
2022-12-18T19:12:52.930Z,98611.25
2022-12-18T19:15:21.773Z,98621.78
2022-12-18T19:17:50.299Z,98623.19
2022-12-18T19:20:20.237Z,98637.31
2022-12-18T19:22:54.370Z,98655.94
2022-12-18T19:25:26.950Z,98652.72
2022-12-18T19:27:59.900Z,98644.00
2022-12-18T19:30:28.056Z,98655.88
2022-12-18T19:32:57.464Z,98656.44
2022-12-18T19:35:30.558Z,98644.34
2022-12-18T19:37:58.809Z,98649.59
2022-12-18T19:40:27.088Z,98639.41
2022-12-18T19:42:56.459Z,98629.66
2022-12-18T19:45:24.673Z,98628.88
2022-12-18T19:47:53.002Z,98627.44
2022-12-18T19:50:23.578Z,98627.03
2022-12-18T19:52:53.559Z,98633.09
2022-12-18T19:55:21.764Z,98627.03
2022-12-18T19:57:50.035Z,98623.78
2022-12-18T20:00:19.108Z,98624.78
2022-12-18T20:02:47.365Z,98635.09
2022-12-18T20:05:15.636Z,98648.81
2022-12-18T20:07:44.133Z,98654.25
2022-12-18T20:10:15.725Z,98632.22
2022-12-18T20:12:46.629Z,98606.09
2022-12-18T20:15:14.733Z,98593.41
2022-12-18T20:17:42.841Z,98573.00
2022-12-18T20:20:12.410Z,98569.19
2022-12-18T20:22:41.561Z,98572.88
2022-12-18T20:25:10.525Z,98570.31
2022-12-18T20:27:40.214Z,98562.03
2022-12-18T20:30:09.744Z,98562.44
2022-12-18T20:32:37.930Z,98560.03
2022-12-18T20:35:07.127Z,98554.22
2022-12-18T20:37:35.774Z,98551.13
2022-12-18T20:40:08.824Z,98529.94
2022-12-18T20:42:40.851Z,98525.13
2022-12-18T20:45:11.523Z,98542.69
2022-12-18T20:47:39.588Z,98544.97
2022-12-18T20:50:09.254Z,98548.00
2022-12-18T20:52:37.452Z,98543.16
2022-12-18T20:55:06.634Z,98549.44
2022-12-18T20:57:34.814Z,98548.06
2022-12-18T21:00:05.379Z,98550.09
2022-12-18T21:02:35.045Z,98543.81
2022-12-18T21:05:03.270Z,98541.56
2022-12-18T21:07:31.613Z,98538.53
2022-12-18T21:09:59.767Z,98554.25
2022-12-18T21:12:40.450Z,98549.16
2022-12-18T21:15:13.860Z,98539.41
2022-12-18T21:17:44.507Z,98530.22
2022-12-18T21:20:13.352Z,98515.34
2022-12-18T21:22:46.847Z,98494.69
2022-12-18T21:25:14.927Z,98496.91
2022-12-18T21:27:43.025Z,98510.84
2022-12-18T21:30:12.102Z,98492.81
2022-12-18T21:32:40.323Z,98496.00
2022-12-18T21:35:10.787Z,98478.63
2022-12-18T21:37:39.344Z,98467.66
2022-12-18T21:40:09.362Z,98469.88
2022-12-18T21:42:55.270Z,98452.63
2022-12-18T21:45:23.424Z,98453.19
2022-12-18T21:47:51.534Z,98412.50
2022-12-18T21:50:21.022Z,98384.38
2022-12-18T21:52:49.029Z,98376.63
2022-12-18T21:55:17.289Z,98368.88
2022-12-18T21:57:45.405Z,98374.50
2022-12-18T22:00:17.427Z,98359.28
2022-12-18T22:02:48.436Z,98356.63
2022-12-18T22:05:37.829Z,98349.34
2022-12-18T22:08:06.953Z,98347.06
2022-12-18T22:10:35.570Z,98353.34
2022-12-18T22:13:03.980Z,98331.50
2022-12-18T22:15:32.160Z,98325.13
2022-12-18T22:18:00.825Z,98318.84
2022-12-18T22:20:29.969Z,98309.38
2022-12-18T22:23:01.099Z,98378.44
2022-12-18T22:25:34.266Z,98367.47
2022-12-18T22:28:21.053Z,98342.97
2022-12-18T22:30:49.244Z,98357.66
2022-12-18T22:33:20.636Z,98356.63
2022-12-18T22:35:48.790Z,98374.25
2022-12-18T22:38:18.578Z,98362.69
2022-12-18T22:40:46.832Z,98364.53
2022-12-18T22:43:15.038Z,98349.53
2022-12-18T22:45:47.444Z,98352.50
2022-12-18T22:48:15.640Z,98345.63
2022-12-18T22:50:44.711Z,98331.66
2022-12-18T22:53:12.777Z,98327.09
2022-12-18T22:55:42.293Z,98322.03
2022-12-18T22:58:10.432Z,98303.50
2022-12-18T23:00:38.619Z,98309.81
2022-12-18T23:03:07.307Z,98324.00
2022-12-18T23:05:38.631Z,98331.09
2022-12-18T23:08:06.738Z,98337.63
2022-12-18T23:10:39.112Z,98326.84
2022-12-18T23:13:08.745Z,98325.03
2022-12-18T23:15:42.057Z,98319.75
2022-12-18T23:18:10.527Z,98326.97
2022-12-18T23:20:38.771Z,98338.31
2022-12-18T23:23:08.342Z,98334.88
2022-12-18T23:25:36.852Z,98341.75
2022-12-18T23:28:05.372Z,98332.44
2022-12-18T23:30:35.380Z,98326.38
2022-12-18T23:33:03.557Z,98319.88
2022-12-18T23:35:31.954Z,98307.94
2022-12-18T23:38:00.796Z,98308.88
2022-12-18T23:40:30.597Z,98302.47
2022-12-18T23:43:00.380Z,98284.25
2022-12-18T23:45:28.661Z,98288.28
2022-12-18T23:47:58.151Z,98281.16
2022-12-18T23:50:29.051Z,98292.16
2022-12-18T23:53:02.138Z,98271.88
2022-12-18T23:55:35.278Z,98275.44
2022-12-18T23:58:03.381Z,98273.03
